createdAt,value
2022-12-18T00:19:41.000Z,140.10
2022-12-18T00:29:42.000Z,149.20
2022-12-18T00:39:42.000Z,129.50
2022-12-18T00:49:43.000Z,136.00
2022-12-18T00:59:43.000Z,143.30
2022-12-18T01:09:44.000Z,156.50
2022-12-18T01:19:44.000Z,129.70
2022-12-18T01:29:45.000Z,139.80
2022-12-18T01:49:46.000Z,161.30
2022-12-18T01:59:47.000Z,137.20
2022-12-18T02:09:47.000Z,133.10
2022-12-18T02:19:48.000Z,101.20
2022-12-18T02:29:49.000Z,99.40
2022-12-18T02:39:49.000Z,106.40
2022-12-18T02:49:50.000Z,100.80
2022-12-18T02:59:51.000Z,85.90
2022-12-18T03:19:52.000Z,93.00
2022-12-18T03:29:53.000Z,88.00
2022-12-18T03:39:53.000Z,106.30
2022-12-18T03:49:54.000Z,90.40
2022-12-18T03:59:55.000Z,93.90
2022-12-18T04:09:55.000Z,104.10
2022-12-18T04:19:56.000Z,103.50
2022-12-18T04:29:57.000Z,89.10
2022-12-18T04:49:58.000Z,130.90
2022-12-18T04:59:59.000Z,77.10
2022-12-18T05:09:59.000Z,91.70
2022-12-18T05:20:00.000Z,67.70
2022-12-18T05:30:01.000Z,64.40
2022-12-18T05:40:01.000Z,69.30
2022-12-18T05:50:02.000Z,59.00
2022-12-18T06:00:03.000Z,53.20
2022-12-18T06:20:04.000Z,64.00
2022-12-18T06:30:05.000Z,78.10
2022-12-18T06:40:06.000Z,62.40
2022-12-18T06:50:06.000Z,60.70
2022-12-18T07:00:07.000Z,68.80
2022-12-18T07:10:08.000Z,52.40
2022-12-18T07:20:08.000Z,42.20
2022-12-18T07:30:09.000Z,58.80
2022-12-18T07:50:10.000Z,60.40
2022-12-18T08:00:11.000Z,109.10
2022-12-18T08:10:12.000Z,71.90
2022-12-18T08:20:12.000Z,138.00
2022-12-18T08:30:13.000Z,133.30
2022-12-18T08:40:13.000Z,101.50
2022-12-18T08:50:14.000Z,113.90
2022-12-18T09:00:15.000Z,133.80
2022-12-18T09:20:16.000Z,89.20
2022-12-18T09:30:16.000Z,82.30
2022-12-18T09:40:17.000Z,76.70
2022-12-18T09:50:17.000Z,102.90
2022-12-18T10:00:17.000Z,78.70
2022-12-18T10:10:18.000Z,78.90
2022-12-18T10:20:18.000Z,71.70
2022-12-18T10:30:19.000Z,61.40
2022-12-18T10:30:19.000Z,61.40
2022-12-18T10:50:19.000Z,79.40
2022-12-18T11:00:19.000Z,61.50
2022-12-18T11:10:19.000Z,55.80
2022-12-18T11:20:20.000Z,77.80
2022-12-18T11:30:20.000Z,68.90
2022-12-18T11:40:20.000Z,64.50
2022-12-18T11:50:20.000Z,68.30
2022-12-18T12:00:20.000Z,65.00
2022-12-18T12:00:20.000Z,65.00
2022-12-18T12:20:20.000Z,59.70
2022-12-18T12:30:20.000Z,61.90
2022-12-18T12:30:20.000Z,61.90
2022-12-18T12:40:20.000Z,50.40
2022-12-18T12:50:21.000Z,39.50
2022-12-18T13:00:21.000Z,46.00
2022-12-18T13:10:21.000Z,42.80
2022-12-18T13:20:21.000Z,38.10
2022-12-18T13:30:21.000Z,41.10
2022-12-18T13:30:21.000Z,41.10
2022-12-18T13:50:21.000Z,44.00
2022-12-18T14:00:21.000Z,48.00
2022-12-18T14:00:21.000Z,48.00
2022-12-18T14:10:21.000Z,44.10
2022-12-18T14:20:21.000Z,63.10
2022-12-18T14:30:21.000Z,69.40
2022-12-18T14:40:21.000Z,72.80
2022-12-18T14:50:21.000Z,86.70
2022-12-18T15:15:57.000Z,84.30
2022-12-18T15:15:57.000Z,77.20
2022-12-18T15:25:57.000Z,90.00
2022-12-18T15:35:57.000Z,74.10
2022-12-18T15:45:58.000Z,75.40
2022-12-18T15:55:58.000Z,96.10
2022-12-18T16:05:58.000Z,99.10
2022-12-18T16:15:58.000Z,124.40
2022-12-18T16:56:17.000Z,115.80
2022-12-18T16:56:17.000Z,101.30
2022-12-18T17:26:36.000Z,104.90
2022-12-18T17:26:36.000Z,104.30
2022-12-18T17:36:36.000Z,77.70
2022-12-18T17:46:35.000Z,74.60
2022-12-18T17:56:35.000Z,79.60
2022-12-18T18:06:35.000Z,85.20
2022-12-18T18:16:35.000Z,75.10
2022-12-18T18:26:35.000Z,81.50
2022-12-18T18:36:35.000Z,81.70
2022-12-18T18:36:35.000Z,81.70
2022-12-18T18:56:35.000Z,71.60
2022-12-18T19:06:35.000Z,89.80
2022-12-18T19:16:34.000Z,62.00
2022-12-18T19:26:34.000Z,58.00
2022-12-18T19:36:34.000Z,61.80
2022-12-18T19:46:34.000Z,102.90
2022-12-18T19:56:34.000Z,74.80
2022-12-18T20:06:34.000Z,65.40
2022-12-18T20:26:33.000Z,87.80
2022-12-18T20:36:33.000Z,69.10
2022-12-18T20:46:33.000Z,54.40
2022-12-18T20:56:33.000Z,110.90
2022-12-18T20:56:33.000Z,110.90
2022-12-18T21:06:33.000Z,97.60
2022-12-18T21:16:33.000Z,61.50
2022-12-18T21:26:32.000Z,55.80
2022-12-18T21:36:32.000Z,45.00
2022-12-18T21:56:32.000Z,66.50
2022-12-18T22:06:32.000Z,53.50
2022-12-18T22:16:32.000Z,47.10
2022-12-18T22:26:31.000Z,63.40
2022-12-18T22:36:31.000Z,110.20
2022-12-18T22:46:31.000Z,63.90
2022-12-18T22:56:31.000Z,70.50
2022-12-18T23:06:30.000Z,56.00
2022-12-18T23:26:30.000Z,54.70
2022-12-18T23:26:30.000Z,54.70
2022-12-18T23:36:30.000Z,55.50
2022-12-18T23:46:29.000Z,72.50
2022-12-18T23:56:29.000Z,47.60
